createdAt,value
2023-03-06T00:00:34.683Z,83.38
2023-03-06T00:03:52.138Z,83.45
2023-03-06T00:06:55.619Z,83.84
2023-03-06T00:09:58.575Z,84.00
2023-03-06T00:13:05.666Z,84.33
2023-03-06T00:16:09.065Z,84.49
2023-03-06T00:19:12.155Z,84.66
2023-03-06T00:22:16.048Z,84.77
2023-03-06T00:25:21.605Z,84.76
2023-03-06T00:28:24.651Z,84.75
2023-03-06T00:31:28.298Z,84.62
2023-03-06T00:34:31.418Z,84.22
2023-03-06T00:37:34.460Z,84.28
2023-03-06T00:40:37.494Z,85.23
2023-03-06T00:43:40.630Z,85.39
2023-03-06T00:46:43.784Z,84.81
2023-03-06T00:49:46.923Z,84.04
2023-03-06T00:52:49.885Z,83.83
2023-03-06T00:55:53.188Z,83.72
2023-03-06T00:58:56.190Z,83.65
2023-03-06T01:02:00.152Z,83.92
2023-03-06T01:05:03.440Z,83.69
2023-03-06T01:08:06.873Z,83.51
2023-03-06T01:11:09.799Z,83.46
2023-03-06T01:14:13.206Z,83.58
2023-03-06T01:17:18.031Z,83.78
2023-03-06T01:20:21.440Z,83.49
2023-03-06T01:23:24.512Z,82.98
2023-03-06T01:26:27.794Z,82.84
2023-03-06T01:29:30.999Z,82.84
2023-03-06T01:32:34.299Z,83.00
2023-03-06T01:35:41.252Z,82.91
2023-03-06T01:38:44.690Z,82.99
2023-03-06T01:41:47.621Z,83.04
2023-03-06T01:45:20.170Z,83.06
2023-03-06T01:48:24.880Z,83.15
2023-03-06T01:51:33.563Z,83.21
2023-03-06T01:54:42.204Z,83.12
2023-03-06T01:57:48.169Z,83.13
2023-03-06T02:00:51.209Z,83.25
2023-03-06T02:03:55.701Z,83.28
2023-03-06T02:07:00.358Z,82.69
2023-03-06T02:10:04.624Z,82.90
2023-03-06T02:13:07.636Z,82.67
2023-03-06T02:16:11.535Z,82.83
2023-03-06T02:19:24.804Z,82.63
2023-03-06T02:22:37.985Z,82.41
2023-03-06T02:25:48.262Z,82.49
2023-03-06T02:28:51.310Z,82.61
2023-03-06T02:31:54.560Z,83.08
2023-03-06T02:34:58.222Z,83.20
2023-03-06T02:38:16.009Z,82.69
2023-03-06T02:41:19.123Z,83.07
2023-03-06T02:44:24.391Z,82.56
2023-03-06T02:47:27.659Z,82.61
2023-03-06T02:50:31.964Z,82.96
2023-03-06T02:53:34.945Z,82.75
2023-03-06T02:56:38.799Z,82.72
2023-03-06T02:59:41.917Z,82.58
2023-03-06T03:02:45.793Z,82.56
2023-03-06T03:05:48.934Z,82.94
2023-03-06T03:08:51.824Z,82.53
2023-03-06T03:11:54.800Z,82.33
2023-03-06T03:14:57.891Z,82.28
2023-03-06T03:18:01.089Z,82.00
2023-03-06T03:21:08.960Z,81.86
2023-03-06T03:24:11.955Z,81.75
2023-03-06T03:27:15.253Z,81.62
2023-03-06T03:30:19.471Z,81.57
2023-03-06T03:33:22.602Z,81.46
2023-03-06T03:36:27.672Z,81.32
2023-03-06T03:39:30.944Z,81.25
2023-03-06T03:42:34.641Z,81.10
2023-03-06T03:45:37.614Z,80.98
2023-03-06T03:48:40.772Z,80.92
2023-03-06T03:51:44.200Z,80.86
2023-03-06T03:54:47.158Z,80.75
2023-03-06T03:57:50.372Z,80.66
2023-03-06T04:00:53.546Z,80.58
2023-03-06T04:03:56.594Z,80.50
2023-03-06T04:07:00.711Z,80.46
2023-03-06T04:10:04.308Z,80.45
2023-03-06T04:13:09.965Z,80.40
2023-03-06T04:16:13.251Z,80.38
2023-03-06T04:19:16.910Z,80.48
2023-03-06T04:22:20.009Z,80.47
2023-03-06T04:25:22.955Z,80.43
2023-03-06T04:28:26.107Z,80.47
2023-03-06T04:31:29.269Z,80.50
2023-03-06T04:34:32.277Z,80.37
2023-03-06T04:37:35.355Z,80.25
2023-03-06T04:40:38.566Z,80.08
2023-03-06T04:43:41.746Z,80.03
2023-03-06T04:46:45.434Z,79.91
2023-03-06T04:49:48.651Z,79.74
2023-03-06T04:52:52.036Z,79.56
2023-03-06T04:55:55.088Z,79.34
2023-03-06T04:58:58.347Z,78.88
2023-03-06T05:02:01.490Z,78.68
2023-03-06T05:05:05.613Z,78.70
2023-03-06T05:08:13.063Z,78.39
2023-03-06T05:11:16.308Z,77.91
2023-03-06T05:14:19.480Z,77.92
2023-03-06T05:17:22.702Z,78.23
2023-03-06T05:20:26.402Z,78.31
2023-03-06T05:23:33.462Z,78.50
2023-03-06T05:27:00.104Z,78.68
2023-03-06T05:30:26.286Z,78.89
2023-03-06T05:34:09.716Z,79.03
2023-03-06T05:37:33.268Z,79.24
2023-03-06T05:40:40.604Z,79.30
2023-03-06T05:43:45.360Z,79.27
2023-03-06T05:47:09.683Z,79.29
2023-03-06T05:50:32.748Z,79.24
2023-03-06T05:53:35.817Z,78.92
2023-03-06T05:56:41.316Z,78.54
2023-03-06T05:59:46.468Z,77.94
2023-03-06T06:02:50.339Z,77.40
2023-03-06T06:05:53.773Z,76.83
2023-03-06T06:08:57.375Z,76.64
2023-03-06T06:12:03.888Z,76.37
2023-03-06T06:15:08.289Z,75.98
2023-03-06T06:18:11.890Z,75.23
2023-03-06T06:21:15.886Z,74.48
2023-03-06T06:24:22.114Z,74.38
2023-03-06T06:27:25.892Z,73.92
2023-03-06T06:30:29.608Z,73.73
2023-03-06T06:33:33.188Z,73.75
2023-03-06T06:36:53.922Z,73.77
2023-03-06T06:39:58.068Z,73.51
2023-03-06T06:43:03.031Z,73.16
2023-03-06T06:46:38.863Z,73.01
2023-03-06T06:49:31.610Z,73.04
2023-03-06T06:52:35.725Z,72.47
2023-03-06T06:55:39.715Z,70.55
2023-03-06T06:58:42.873Z,69.87
2023-03-06T07:01:46.953Z,70.85
2023-03-06T07:05:03.142Z,71.81
2023-03-06T07:08:07.787Z,72.26
2023-03-06T07:11:16.202Z,71.08
2023-03-06T07:14:19.414Z,70.40
2023-03-06T07:17:22.532Z,69.41
2023-03-06T07:20:26.428Z,68.80
2023-03-06T07:23:30.382Z,68.25
2023-03-06T07:26:35.588Z,66.85
2023-03-06T07:29:39.390Z,66.50
2023-03-06T07:33:10.435Z,66.59
2023-03-06T07:41:31.992Z,65.78
2023-03-06T07:45:57.747Z,64.90
2023-03-06T07:50:21.850Z,65.00
2023-03-06T07:54:29.330Z,64.77
2023-03-06T07:58:57.160Z,64.80
2023-03-06T08:03:40.452Z,62.43
2023-03-06T08:08:19.220Z,59.26
2023-03-06T08:13:02.930Z,59.09
2023-03-06T08:17:24.911Z,59.99
2023-03-06T08:21:44.821Z,60.87
2023-03-06T08:26:28.841Z,61.21
2023-03-06T08:31:12.770Z,61.07
2023-03-06T08:35:37.486Z,60.31
2023-03-06T08:39:49.453Z,60.66
2023-03-06T08:44:33.548Z,60.59
2023-03-06T08:48:57.412Z,60.90
2023-03-06T08:53:17.034Z,60.92
2023-03-06T08:57:30.431Z,61.10
2023-03-06T09:02:14.206Z,60.75
2023-03-06T09:06:55.514Z,58.88
2023-03-06T09:11:57.394Z,58.55
2023-03-06T09:16:21.874Z,57.50
2023-03-06T09:20:38.225Z,57.18
2023-03-06T09:24:41.095Z,56.74
2023-03-06T09:29:03.994Z,58.65
2023-03-06T09:33:28.396Z,57.31
2023-03-06T09:37:38.987Z,54.61
2023-03-06T09:42:07.400Z,57.09
2023-03-06T09:46:29.752Z,57.83
2023-03-06T09:51:15.357Z,56.16
2023-03-06T09:55:27.198Z,56.37
2023-03-06T10:00:04.193Z,54.11
2023-03-06T10:04:38.815Z,55.77
2023-03-06T10:09:17.774Z,56.09
2023-03-06T10:13:56.349Z,51.55
2023-03-06T10:18:26.811Z,49.71
2023-03-06T10:23:00.560Z,53.07
2023-03-06T10:27:12.262Z,50.21
2023-03-06T10:31:16.302Z,52.50
2023-03-06T10:36:07.542Z,50.58
2023-03-06T10:40:29.369Z,49.91
2023-03-06T10:45:01.189Z,51.57
2023-03-06T10:49:25.168Z,50.31
2023-03-06T10:53:39.783Z,50.02
2023-03-06T10:57:58.682Z,48.43
2023-03-06T11:02:24.687Z,47.96
2023-03-06T11:06:33.240Z,49.12
2023-03-06T11:10:57.644Z,50.45
2023-03-06T11:15:16.466Z,48.12
2023-03-06T11:19:23.962Z,45.22
2023-03-06T11:23:42.904Z,45.26
2023-03-06T11:28:36.911Z,47.13
2023-03-06T11:33:31.154Z,47.32
2023-03-06T11:37:59.414Z,49.40
2023-03-06T11:43:55.209Z,47.92
2023-03-06T11:48:04.612Z,47.29
2023-03-06T11:52:24.657Z,47.09
2023-03-06T11:57:11.946Z,48.61
2023-03-06T12:01:58.349Z,50.02
2023-03-06T12:06:28.185Z,49.75
2023-03-06T12:15:49.973Z,50.43
2023-03-06T12:21:01.339Z,51.44
2023-03-06T12:25:47.931Z,51.42
2023-03-06T12:30:03.827Z,50.91
2023-03-06T12:35:05.979Z,50.75
2023-03-06T12:39:42.971Z,50.23
2023-03-06T12:44:33.009Z,50.03
2023-03-06T12:48:58.928Z,50.54
2023-03-06T12:53:42.578Z,50.56
2023-03-06T12:58:08.178Z,52.29
2023-03-06T13:02:54.742Z,52.65
2023-03-06T13:07:59.395Z,53.42
2023-03-06T13:12:25.305Z,54.23
2023-03-06T13:17:04.310Z,54.83
2023-03-06T13:21:27.021Z,55.08
2023-03-06T13:25:58.217Z,55.40
2023-03-06T13:30:16.591Z,55.56
2023-03-06T13:34:45.188Z,54.72
2023-03-06T13:39:18.405Z,53.95
2023-03-06T13:43:31.379Z,53.03
2023-03-06T13:48:33.719Z,53.05
2023-03-06T13:53:03.433Z,52.21
2023-03-06T13:57:36.678Z,52.05
2023-03-06T14:02:27.123Z,50.50
2023-03-06T14:07:05.629Z,50.85
2023-03-06T14:11:47.533Z,51.19
2023-03-06T14:16:32.694Z,51.57
2023-03-06T14:20:55.388Z,51.17
2023-03-06T14:25:39.660Z,51.18
2023-03-06T14:29:46.282Z,50.80
2023-03-06T14:33:59.052Z,50.63
2023-03-06T14:38:25.042Z,51.01
2023-03-06T14:42:52.724Z,51.46
2023-03-06T14:47:24.101Z,52.17
2023-03-06T14:51:28.103Z,52.79
2023-03-06T14:56:12.128Z,53.30
2023-03-06T15:00:31.941Z,54.08
2023-03-06T15:04:59.067Z,55.21
2023-03-06T15:09:36.637Z,55.44
2023-03-06T15:14:23.359Z,55.99
2023-03-06T15:18:53.817Z,57.23
2023-03-06T15:23:38.273Z,58.61
2023-03-06T15:28:07.490Z,59.37
2023-03-06T15:32:53.390Z,61.21
2023-03-06T15:37:21.230Z,61.82
2023-03-06T15:42:08.524Z,63.35
2023-03-06T15:46:39.377Z,63.39
2023-03-06T15:51:18.797Z,64.11
2023-03-06T15:56:02.889Z,65.17
2023-03-06T16:00:26.609Z,66.03
2023-03-06T16:04:51.109Z,67.07
2023-03-06T16:09:34.919Z,67.60
2023-03-06T16:14:09.803Z,67.04
2023-03-06T16:18:35.471Z,67.11
2023-03-06T16:23:03.011Z,67.29
2023-03-06T16:27:18.583Z,67.61
2023-03-06T16:32:02.895Z,67.87
2023-03-06T16:36:42.788Z,68.60
2023-03-06T16:41:21.525Z,69.21
2023-03-06T16:45:45.475Z,69.38
2023-03-06T16:50:05.843Z,69.76
2023-03-06T16:54:50.382Z,70.08
2023-03-06T16:59:06.961Z,70.30
2023-03-06T17:03:15.431Z,70.43
2023-03-06T17:07:48.607Z,70.61
2023-03-06T17:12:32.963Z,70.22
2023-03-06T17:17:06.471Z,69.88
2023-03-06T17:21:46.374Z,69.45
2023-03-06T17:26:14.823Z,69.21
2023-03-06T17:30:26.398Z,69.07
2023-03-06T17:35:10.732Z,69.05
2023-03-06T17:39:35.940Z,69.21
2023-03-06T17:44:23.185Z,69.52
2023-03-06T17:49:07.047Z,69.71
2023-03-06T17:53:22.381Z,69.74
2023-03-06T17:57:51.943Z,69.79
2023-03-06T18:02:14.089Z,69.76
2023-03-06T18:06:40.564Z,69.83
2023-03-06T18:10:47.099Z,70.00
2023-03-06T18:15:17.904Z,70.31
2023-03-06T18:19:32.461Z,70.54
2023-03-06T18:23:44.805Z,70.80
2023-03-06T18:28:10.554Z,71.21
2023-03-06T18:32:38.002Z,71.24
2023-03-06T18:36:53.345Z,71.44
2023-03-06T18:41:27.863Z,71.58
2023-03-06T18:45:32.569Z,71.62
2023-03-06T18:49:48.964Z,71.54
2023-03-06T18:54:00.350Z,71.54
2023-03-06T18:58:08.743Z,71.62
2023-03-06T19:02:14.240Z,71.66
2023-03-06T19:06:54.867Z,71.90
2023-03-06T19:11:08.403Z,71.80
2023-03-06T19:15:15.822Z,71.84
2023-03-06T19:19:40.058Z,71.86
2023-03-06T19:24:19.512Z,71.90
2023-03-06T19:29:03.357Z,71.82
2023-03-06T19:33:47.684Z,71.70
2023-03-06T19:38:13.451Z,71.66
2023-03-06T19:44:11.660Z,71.52
2023-03-06T19:48:38.525Z,70.87
2023-03-06T19:53:15.999Z,70.92
2023-03-06T19:57:39.155Z,70.87
2023-03-06T20:02:09.876Z,70.82
2023-03-06T20:06:12.944Z,70.77
2023-03-06T20:10:44.056Z,70.67
2023-03-06T20:15:03.944Z,70.45
2023-03-06T20:19:27.585Z,70.40
2023-03-06T20:23:46.899Z,70.31
2023-03-06T20:39:19.722Z,70.14
2023-03-06T20:43:58.205Z,70.16
2023-03-06T20:48:22.558Z,70.06
2023-03-06T20:52:48.932Z,69.99
2023-03-06T20:57:12.532Z,69.99
2023-03-06T21:01:35.404Z,69.88
2023-03-06T21:06:17.972Z,69.80
2023-03-06T21:13:53.245Z,69.95
2023-03-06T21:18:37.017Z,70.05
2023-03-06T21:23:08.929Z,69.97
2023-03-06T21:27:40.643Z,69.81
2023-03-06T21:32:07.652Z,69.72
2023-03-06T21:36:51.416Z,69.87
2023-03-06T21:41:35.628Z,70.15
2023-03-06T21:46:15.266Z,70.32
2023-03-06T21:50:59.396Z,70.60
2023-03-06T21:55:43.200Z,70.89
2023-03-06T22:11:49.285Z,71.15
2023-03-06T22:16:11.987Z,70.97
2023-03-06T22:20:36.720Z,71.01
2023-03-06T22:25:06.725Z,70.90
2023-03-06T22:29:29.194Z,71.01
2023-03-06T22:33:53.433Z,71.13
2023-03-06T22:38:05.790Z,71.10
2023-03-06T22:42:28.826Z,71.22
2023-03-06T22:46:53.598Z,71.60
2023-03-06T22:51:36.131Z,71.84
2023-03-06T22:55:58.755Z,71.77
2023-03-06T23:00:21.947Z,71.64
2023-03-06T23:04:46.313Z,71.52
2023-03-06T23:14:06.892Z,71.31
2023-03-06T23:18:16.183Z,71.22
2023-03-06T23:22:59.966Z,71.13
2023-03-06T23:27:43.699Z,70.99
2023-03-06T23:32:27.449Z,70.89
2023-03-06T23:36:54.348Z,70.82
2023-03-06T23:41:33.715Z,70.68
2023-03-06T23:46:11.036Z,70.58
2023-03-06T23:50:34.871Z,70.45
2023-03-06T23:54:47.671Z,70.51
2023-03-06T23:59:19.381Z,70.41
